createdAt,value
2018-11-07T00:01:59.099Z,29.80
2018-11-07T00:04:27.883Z,30.70
2018-11-07T00:06:56.639Z,33.10
2018-11-07T00:09:25.603Z,30.20
2018-11-07T00:11:54.273Z,35.03
2018-11-07T00:14:23.164Z,31.40
2018-11-07T00:16:52.023Z,34.47
2018-11-07T00:19:20.788Z,26.27
2018-11-07T00:21:49.699Z,28.77
2018-11-07T00:24:18.830Z,29.13
2018-11-07T00:26:47.842Z,27.50
2018-11-07T00:29:16.855Z,28.10
2018-11-07T00:31:45.697Z,22.00
2018-11-07T00:34:14.527Z,25.43
2018-11-07T00:36:43.119Z,26.20
2018-11-07T00:39:11.854Z,27.17
2018-11-07T00:41:40.866Z,28.07
2018-11-07T00:44:09.743Z,24.73
2018-11-07T00:46:38.693Z,26.37
2018-11-07T00:49:07.675Z,23.57
2018-11-07T00:51:36.778Z,24.77
2018-11-07T00:54:05.781Z,21.30
2018-11-07T00:56:34.609Z,22.33
2018-11-07T00:59:03.649Z,29.67
2018-11-07T01:01:32.863Z,22.20
2018-11-07T01:04:01.912Z,26.10
2018-11-07T01:06:30.599Z,19.70
2018-11-07T01:08:59.647Z,24.33
2018-11-07T01:11:28.642Z,21.70
2018-11-07T01:13:58.274Z,23.67
2018-11-07T01:16:27.050Z,19.50
2018-11-07T01:18:55.875Z,23.60
2018-11-07T01:21:25.083Z,22.37
2018-11-07T01:23:53.966Z,21.80
2018-11-07T01:26:22.703Z,19.53
2018-11-07T01:28:51.787Z,21.37
2018-11-07T01:31:20.375Z,19.60
2018-11-07T01:33:49.020Z,26.00
2018-11-07T01:36:17.945Z,20.43
2018-11-07T01:38:47.053Z,20.23
2018-11-07T01:41:16.104Z,21.60
2018-11-07T01:43:45.208Z,18.47
2018-11-07T01:46:14.287Z,23.27
2018-11-07T01:48:43.131Z,19.57
2018-11-07T01:51:12.403Z,17.30
2018-11-07T01:53:41.376Z,17.93
2018-11-07T01:56:10.170Z,18.37
2018-11-07T01:58:39.278Z,22.73
2018-11-07T02:01:08.292Z,20.63
2018-11-07T02:03:36.954Z,20.43
2018-11-07T02:06:06.061Z,19.20
2018-11-07T02:08:34.935Z,20.83
2018-11-07T02:11:03.827Z,21.87
2018-11-07T02:13:33.117Z,18.83
2018-11-07T02:16:01.960Z,18.30
2018-11-07T02:18:30.910Z,19.97
2018-11-07T02:20:59.909Z,17.43
2018-11-07T02:23:28.770Z,19.20
2018-11-07T02:25:57.674Z,20.73
2018-11-07T02:28:26.694Z,20.23
2018-11-07T02:30:55.666Z,18.87
2018-11-07T02:33:24.338Z,18.13
2018-11-07T02:35:53.427Z,22.37
2018-11-07T02:38:22.755Z,17.70
2018-11-07T02:40:51.603Z,20.53
2018-11-07T02:43:20.747Z,19.77
2018-11-07T02:45:49.614Z,19.27
2018-11-07T02:48:18.530Z,25.80
2018-11-07T02:50:47.978Z,19.77
2018-11-07T02:53:16.961Z,23.17
2018-11-07T02:55:46.128Z,21.17
2018-11-07T02:58:15.237Z,21.97
2018-11-07T03:00:43.826Z,20.00
2018-11-07T03:03:12.470Z,25.07
2018-11-07T03:05:41.357Z,20.53
2018-11-07T03:08:10.265Z,20.67
2018-11-07T03:10:39.357Z,22.03
2018-11-07T03:13:08.094Z,24.27
2018-11-07T03:15:37.025Z,23.10
2018-11-07T03:18:06.318Z,24.63
2018-11-07T03:20:35.221Z,24.53
2018-11-07T03:23:03.978Z,26.37
2018-11-07T03:25:32.671Z,21.67
2018-11-07T03:28:01.556Z,27.77
2018-11-07T03:30:30.502Z,22.23
2018-11-07T03:32:59.219Z,27.80
2018-11-07T03:35:28.726Z,31.67
2018-11-07T03:37:57.996Z,27.57
2018-11-07T03:40:27.404Z,30.10
2018-11-07T03:42:56.710Z,24.33
2018-11-07T03:45:30.730Z,23.13
2018-11-07T03:48:00.184Z,20.93
2018-11-07T03:50:29.255Z,23.70
2018-11-07T03:52:58.025Z,29.43
2018-11-07T03:55:26.677Z,25.30
2018-11-07T03:57:55.673Z,22.50
2018-11-07T04:00:24.358Z,25.47
2018-11-07T04:02:53.390Z,25.87
2018-11-07T04:05:22.090Z,23.03
2018-11-07T04:07:51.035Z,27.63
2018-11-07T04:10:20.165Z,22.57
2018-11-07T04:12:48.887Z,26.23
2018-11-07T04:15:17.726Z,29.13
2018-11-07T04:17:47.117Z,28.33
2018-11-07T04:20:16.123Z,28.60
2018-11-07T04:22:45.050Z,25.17
2018-11-07T04:25:14.086Z,29.33
2018-11-07T04:27:42.886Z,23.90
2018-11-07T04:30:13.222Z,24.00
2018-11-07T04:32:42.443Z,23.37
2018-11-07T04:35:12.309Z,22.17
2018-11-07T04:37:41.674Z,24.07
2018-11-07T04:40:12.051Z,22.37
2018-11-07T04:42:41.062Z,26.27
2018-11-07T04:45:10.073Z,23.87
2018-11-07T04:47:39.169Z,27.90
2018-11-07T04:50:09.586Z,23.70
2018-11-07T04:52:38.779Z,30.07
2018-11-07T04:55:07.574Z,30.03
2018-11-07T04:57:36.658Z,30.97
2018-11-07T05:00:07.985Z,34.67
2018-11-07T05:02:36.896Z,31.47
2018-11-07T05:05:05.998Z,27.27
2018-11-07T05:07:35.022Z,23.60
2018-11-07T05:10:04.266Z,30.10
2018-11-07T05:12:33.230Z,29.03
2018-11-07T05:15:02.432Z,24.37
2018-11-07T05:17:31.691Z,27.87
2018-11-07T05:20:00.682Z,24.10
2018-11-07T05:22:29.506Z,30.63
2018-11-07T05:24:58.252Z,25.97
2018-11-07T05:27:26.986Z,29.80
2018-11-07T05:29:55.945Z,28.07
2018-11-07T05:32:24.994Z,25.93
2018-11-07T05:34:53.912Z,20.53
2018-11-07T05:37:22.742Z,27.50
2018-11-07T05:39:51.943Z,27.53
2018-11-07T05:42:20.745Z,29.57
2018-11-07T05:44:49.615Z,25.30
2018-11-07T05:47:18.557Z,33.57
2018-11-07T05:49:47.451Z,27.47
2018-11-07T05:52:16.521Z,24.03
2018-11-07T05:54:45.645Z,37.27
2018-11-07T05:57:14.460Z,34.00
2018-11-07T05:59:43.430Z,29.73
2018-11-07T06:02:12.191Z,33.60
2018-11-07T06:04:41.011Z,33.70
2018-11-07T06:07:09.626Z,30.87
2018-11-07T06:09:38.582Z,44.73
2018-11-07T06:12:07.506Z,50.77
2018-11-07T06:14:36.252Z,34.00
2018-11-07T06:17:05.358Z,36.07
2018-11-07T06:19:34.486Z,34.33
2018-11-07T06:22:03.270Z,33.93
2018-11-07T06:24:32.936Z,29.03
2018-11-07T06:27:02.185Z,39.93
2018-11-07T06:29:31.111Z,30.90
2018-11-07T06:31:59.989Z,28.20
2018-11-07T06:34:28.833Z,49.57
2018-11-07T06:36:57.935Z,39.37
2018-11-07T06:39:27.169Z,36.60
2018-11-07T06:41:56.814Z,27.13
2018-11-07T06:44:25.830Z,37.60
2018-11-07T06:46:55.034Z,34.07
2018-11-07T06:49:24.174Z,34.57
2018-11-07T06:51:53.669Z,41.57
2018-11-07T06:54:22.540Z,36.10
2018-11-07T06:56:51.666Z,40.00
2018-11-07T06:59:20.487Z,32.13
2018-11-07T07:01:49.567Z,39.40
2018-11-07T07:04:18.514Z,33.77
2018-11-07T07:06:47.366Z,37.90
2018-11-07T07:09:16.313Z,41.67
2018-11-07T07:11:45.249Z,40.87
2018-11-07T07:14:14.013Z,41.13
2018-11-07T07:16:42.698Z,49.40
2018-11-07T07:19:12.160Z,37.40
2018-11-07T07:21:41.186Z,36.53
2018-11-07T07:24:09.889Z,39.57
2018-11-07T07:26:38.858Z,51.53
2018-11-07T07:29:07.989Z,39.70
2018-11-07T07:31:36.743Z,34.10
2018-11-07T07:34:05.837Z,35.97
2018-11-07T07:36:34.840Z,32.07
2018-11-07T07:39:04.008Z,29.73
2018-11-07T07:41:32.798Z,35.87
2018-11-07T07:44:01.712Z,34.23
2018-11-07T07:46:30.806Z,38.03
2018-11-07T07:48:59.815Z,37.37
2018-11-07T07:51:28.774Z,36.13
2018-11-07T07:53:57.679Z,38.23
2018-11-07T07:56:26.523Z,45.53
2018-11-07T07:58:55.378Z,50.97
2018-11-07T08:01:24.035Z,40.13
2018-11-07T08:03:52.760Z,40.17
2018-11-07T08:06:21.726Z,41.37
2018-11-07T08:08:50.517Z,47.63
2018-11-07T08:11:19.666Z,47.93
2018-11-07T08:13:48.355Z,44.70
2018-11-07T08:16:17.381Z,48.80
2018-11-07T08:18:46.083Z,46.67
2018-11-07T08:21:15.265Z,58.00
2018-11-07T08:23:44.131Z,43.40
2018-11-07T08:26:12.858Z,46.90
2018-11-07T08:28:41.811Z,47.30
2018-11-07T08:31:10.453Z,48.23
2018-11-07T08:33:39.158Z,51.93
2018-11-07T08:36:08.147Z,46.10
2018-11-07T08:38:37.066Z,45.50
2018-11-07T08:41:06.845Z,41.67
2018-11-07T08:43:36.387Z,51.77
2018-11-07T08:46:05.926Z,43.43
2018-11-07T08:48:34.822Z,49.83
2018-11-07T08:51:03.611Z,38.97
2018-11-07T08:53:32.625Z,40.23
2018-11-07T08:56:01.822Z,42.83
2018-11-07T08:58:30.738Z,39.60
2018-11-07T09:00:59.403Z,30.93
2018-11-07T09:03:28.130Z,33.00
2018-11-07T09:05:57.405Z,30.50
2018-11-07T09:08:26.280Z,31.50
2018-11-07T09:10:55.142Z,30.17
2018-11-07T09:13:24.512Z,43.80
2018-11-07T09:15:53.529Z,26.00
2018-11-07T09:18:22.673Z,23.77
2018-11-07T09:20:51.872Z,21.00
2018-11-07T09:23:20.905Z,25.03
2018-11-07T09:25:49.689Z,22.27
2018-11-07T09:28:18.481Z,22.50
2018-11-07T09:30:47.607Z,20.00
2018-11-07T09:33:17.195Z,32.73
2018-11-07T09:35:46.355Z,21.30
2018-11-07T09:38:15.232Z,24.53
2018-11-07T09:40:44.126Z,25.63
2018-11-07T09:43:13.332Z,23.47
2018-11-07T09:45:42.150Z,23.50
2018-11-07T09:48:11.432Z,27.87
2018-11-07T09:50:40.612Z,27.33
2018-11-07T09:53:09.347Z,23.70
2018-11-07T09:55:38.229Z,41.13
2018-11-07T09:58:07.511Z,25.10
2018-11-07T10:00:36.202Z,23.23
2018-11-07T10:03:04.967Z,26.00
2018-11-07T10:05:33.881Z,33.30
2018-11-07T10:08:02.688Z,29.20
2018-11-07T10:10:31.334Z,22.60
2018-11-07T10:13:00.560Z,21.73
2018-11-07T10:15:29.728Z,20.20
2018-11-07T10:17:58.805Z,19.97
2018-11-07T10:20:27.940Z,19.20
2018-11-07T10:22:57.198Z,18.90
2018-11-07T10:25:26.429Z,25.37
2018-11-07T10:27:56.095Z,20.40
2018-11-07T10:30:24.546Z,21.17
2018-11-07T10:32:53.085Z,24.27
2018-11-07T10:35:22.015Z,21.17
2018-11-07T10:37:50.920Z,17.57
2018-11-07T10:40:22.221Z,26.73
2018-11-07T10:42:51.323Z,19.57
2018-11-07T10:45:20.431Z,17.83
2018-11-07T10:47:50.034Z,18.90
2018-11-07T10:50:19.687Z,26.03
2018-11-07T10:52:49.418Z,23.30
2018-11-07T10:55:18.900Z,27.80
2018-11-07T10:57:48.098Z,22.33
2018-11-07T11:00:22.262Z,22.63
2018-11-07T11:02:55.861Z,23.67
2018-11-07T11:05:24.850Z,26.73
2018-11-07T11:07:54.012Z,22.40
2018-11-07T11:10:23.315Z,21.93
2018-11-07T11:12:52.499Z,18.77
2018-11-07T11:15:24.428Z,19.33
2018-11-07T11:17:53.300Z,18.70
2018-11-07T11:20:22.224Z,22.17
2018-11-07T11:22:51.009Z,21.03
2018-11-07T11:25:20.143Z,23.37
2018-11-07T11:27:49.099Z,19.83
2018-11-07T11:30:17.710Z,25.97
2018-11-07T11:32:46.428Z,19.77
2018-11-07T11:35:15.393Z,19.07
2018-11-07T11:37:44.036Z,19.77
2018-11-07T11:40:14.064Z,14.63
2018-11-07T11:42:43.911Z,17.90
2018-11-07T11:45:13.823Z,24.83
2018-11-07T11:47:43.115Z,19.67
2018-11-07T11:50:14.227Z,18.47
2018-11-07T11:52:44.183Z,18.87
2018-11-07T11:55:13.198Z,19.23
2018-11-07T11:57:43.582Z,16.80
2018-11-07T12:00:14.842Z,19.93
2018-11-07T12:02:43.629Z,21.03
2018-11-07T12:05:13.324Z,36.07
2018-11-07T12:07:42.413Z,24.20
2018-11-07T12:10:19.261Z,20.40
2018-11-07T12:12:49.341Z,14.27
2018-11-07T12:15:19.162Z,20.83
2018-11-07T12:17:48.163Z,14.30
2018-11-07T12:20:16.959Z,18.07
2018-11-07T12:22:46.105Z,15.37
2018-11-07T12:25:15.604Z,20.60
2018-11-07T12:27:44.846Z,16.37
2018-11-07T12:30:16.439Z,21.60
2018-11-07T12:32:46.388Z,14.20
2018-11-07T12:35:15.662Z,18.67
2018-11-07T12:37:44.839Z,22.67
2018-11-07T12:40:14.118Z,24.47
2018-11-07T12:42:43.083Z,25.80
2018-11-07T12:45:13.306Z,19.60
2018-11-07T12:47:42.194Z,19.03
2018-11-07T12:50:17.636Z,18.60
2018-11-07T12:52:46.936Z,20.33
2018-11-07T12:55:15.966Z,17.67
2018-11-07T12:57:45.020Z,19.37
2018-11-07T13:00:16.130Z,20.90
2018-11-07T13:02:45.033Z,28.97
2018-11-07T13:05:15.071Z,19.57
2018-11-07T13:07:44.766Z,25.70
2018-11-07T13:10:14.801Z,25.43
2018-11-07T13:12:44.659Z,16.07
2018-11-07T13:15:14.213Z,24.63
2018-11-07T13:17:43.230Z,24.33
2018-11-07T13:20:14.329Z,22.73
2018-11-07T13:22:44.194Z,17.43
2018-11-07T13:25:13.771Z,15.97
2018-11-07T13:27:42.789Z,21.73
2018-11-07T13:30:15.710Z,26.73
2018-11-07T13:32:44.500Z,24.07
2018-11-07T13:35:14.175Z,23.30
2018-11-07T13:37:43.656Z,17.37
2018-11-07T13:40:19.678Z,19.10
2018-11-07T13:42:48.544Z,20.20
2018-11-07T13:45:18.654Z,19.27
2018-11-07T13:47:48.566Z,19.80
2018-11-07T13:50:17.805Z,19.77
2018-11-07T13:52:46.832Z,17.40
2018-11-07T13:55:16.151Z,21.33
2018-11-07T13:57:45.187Z,23.13
2018-11-07T14:00:19.230Z,19.60
2018-11-07T14:02:48.817Z,20.63
2018-11-07T14:05:17.630Z,17.57
2018-11-07T14:07:46.434Z,17.67
2018-11-07T14:10:24.026Z,28.57
2018-11-07T14:12:53.274Z,30.43
2018-11-07T14:15:22.179Z,25.87
2018-11-07T14:17:51.580Z,23.17
2018-11-07T14:20:20.795Z,23.07
2018-11-07T14:22:49.694Z,19.27
2018-11-07T14:25:18.481Z,21.37
2018-11-07T14:27:47.549Z,20.67
2018-11-07T14:30:17.870Z,25.97
2018-11-07T14:32:49.684Z,31.50
2018-11-07T14:35:18.998Z,23.17
2018-11-07T14:37:47.942Z,26.73
2018-11-07T14:40:16.934Z,30.83
2018-11-07T14:42:45.993Z,32.17
2018-11-07T14:45:15.080Z,31.73
2018-11-07T14:47:44.055Z,25.43
2018-11-07T14:50:13.278Z,31.67
2018-11-07T14:52:42.333Z,26.53
2018-11-07T14:55:12.350Z,31.60
2018-11-07T14:57:41.290Z,27.87
2018-11-07T15:00:12.270Z,35.77
2018-11-07T15:02:41.685Z,31.37
2018-11-07T15:05:11.763Z,39.27
2018-11-07T15:07:41.218Z,38.93
2018-11-07T15:10:11.427Z,29.10
2018-11-07T15:12:40.163Z,33.43
2018-11-07T15:15:11.698Z,37.53
2018-11-07T15:17:40.638Z,36.33
2018-11-07T15:20:10.674Z,45.03
2018-11-07T15:22:39.757Z,34.07
2018-11-07T15:25:09.994Z,31.07
2018-11-07T15:27:38.975Z,30.00
2018-11-07T15:30:09.402Z,32.27
2018-11-07T15:32:38.558Z,34.97
2018-11-07T15:35:08.046Z,31.83
2018-11-07T15:37:37.071Z,31.40
2018-11-07T15:40:07.443Z,36.97
2018-11-07T15:42:36.217Z,35.13
2018-11-07T15:45:05.909Z,41.87
2018-11-07T15:47:34.928Z,39.27
2018-11-07T15:50:08.978Z,31.67
2018-11-07T15:52:37.869Z,30.70
2018-11-07T15:55:07.413Z,37.27
2018-11-07T15:57:36.592Z,37.40
2018-11-07T16:00:08.229Z,33.63
2018-11-07T16:02:37.456Z,36.63
2018-11-07T16:05:06.901Z,37.83
2018-11-07T16:07:35.623Z,44.70
2018-11-07T16:10:04.938Z,38.47
2018-11-07T16:12:33.877Z,40.43
2018-11-07T16:15:02.786Z,40.60
2018-11-07T16:17:31.663Z,48.03
2018-11-07T16:20:00.795Z,34.97
2018-11-07T16:22:29.504Z,33.03
2018-11-07T16:24:58.821Z,38.43
2018-11-07T16:27:27.778Z,38.53
2018-11-07T16:29:56.686Z,39.53
2018-11-07T16:32:25.722Z,40.73
2018-11-07T16:34:54.302Z,40.80
2018-11-07T16:37:23.088Z,29.83
2018-11-07T16:39:51.847Z,35.43
2018-11-07T16:42:20.662Z,32.93
2018-11-07T16:44:49.433Z,34.23
2018-11-07T16:47:18.418Z,29.67
2018-11-07T16:49:47.511Z,34.40
2018-11-07T16:52:16.467Z,38.53
2018-11-07T16:54:45.346Z,34.63
2018-11-07T16:57:14.382Z,31.93
2018-11-07T16:59:43.486Z,40.00
2018-11-07T17:02:12.736Z,29.20
2018-11-07T17:04:41.701Z,35.83
2018-11-07T17:07:10.428Z,28.90
2018-11-07T17:09:39.307Z,32.57
2018-11-07T17:12:08.002Z,33.30
2018-11-07T17:14:36.825Z,37.07
2018-11-07T17:17:05.795Z,34.50
2018-11-07T17:19:35.140Z,34.17
2018-11-07T17:22:04.143Z,29.87
2018-11-07T17:24:33.358Z,39.73
2018-11-07T17:27:02.122Z,27.70
2018-11-07T17:29:31.159Z,33.30
2018-11-07T17:32:00.054Z,31.03
2018-11-07T17:34:28.902Z,37.80
2018-11-07T17:36:57.544Z,27.33
2018-11-07T17:39:26.377Z,31.47
2018-11-07T17:41:55.329Z,29.33
2018-11-07T17:44:24.051Z,25.37
2018-11-07T17:46:52.854Z,28.40
2018-11-07T17:49:21.866Z,41.87
2018-11-07T17:51:50.823Z,30.23
2018-11-07T17:54:20.055Z,26.97
2018-11-07T17:56:49.138Z,28.53
2018-11-07T17:59:18.182Z,29.77
2018-11-07T18:01:47.134Z,30.73
2018-11-07T18:04:15.803Z,29.67
2018-11-07T18:06:44.522Z,36.87
2018-11-07T18:09:13.263Z,29.77
2018-11-07T18:11:42.107Z,24.03
2018-11-07T18:14:11.384Z,25.30
2018-11-07T18:16:40.202Z,29.57
2018-11-07T18:19:09.543Z,31.63
2018-11-07T18:21:38.553Z,29.33
2018-11-07T18:24:07.489Z,26.93
2018-11-07T18:26:36.666Z,28.90
2018-11-07T18:29:06.574Z,24.93
2018-11-07T18:31:35.587Z,25.47
2018-11-07T18:34:04.356Z,27.80
2018-11-07T18:36:33.130Z,30.97
2018-11-07T18:39:02.367Z,27.70
2018-11-07T18:41:31.519Z,27.57
2018-11-07T18:44:00.357Z,36.33
2018-11-07T18:46:29.081Z,28.70
2018-11-07T18:48:57.846Z,26.10
2018-11-07T18:51:26.771Z,27.40
2018-11-07T18:53:55.634Z,27.73
2018-11-07T18:56:24.607Z,25.77
2018-11-07T18:58:53.960Z,28.70
2018-11-07T19:01:22.675Z,26.67
2018-11-07T19:03:51.406Z,33.33
2018-11-07T19:06:20.142Z,42.97
2018-11-07T19:08:48.966Z,49.87
2018-11-07T19:11:18.199Z,40.43
2018-11-07T19:13:47.470Z,49.60
2018-11-07T19:16:16.450Z,50.83
2018-11-07T19:18:45.199Z,53.07
2018-11-07T19:21:14.247Z,55.33
2018-11-07T19:23:42.943Z,56.33
2018-11-07T19:26:11.685Z,51.70
2018-11-07T19:28:40.559Z,63.27
2018-11-07T19:31:09.223Z,52.30
2018-11-07T19:33:37.895Z,51.53
2018-11-07T19:36:06.639Z,56.63
2018-11-07T19:38:35.550Z,43.93
2018-11-07T19:41:04.330Z,47.83
2018-11-07T19:43:33.379Z,44.90
2018-11-07T19:46:02.503Z,44.50
2018-11-07T19:48:31.434Z,45.93
2018-11-07T19:51:00.125Z,45.50
2018-11-07T19:53:29.114Z,46.20
2018-11-07T19:55:58.382Z,49.50
2018-11-07T19:58:27.302Z,58.30
2018-11-07T20:00:55.955Z,60.90
2018-11-07T20:03:24.583Z,62.10
2018-11-07T20:05:53.342Z,84.23
2018-11-07T20:08:22.325Z,68.13
2018-11-07T20:10:51.102Z,68.50
2018-11-07T20:13:20.034Z,71.60
2018-11-07T20:15:49.102Z,64.33
2018-11-07T20:18:17.962Z,61.47
2018-11-07T20:20:46.670Z,63.87
2018-11-07T20:23:15.688Z,72.20
2018-11-07T20:25:44.372Z,76.13
2018-11-07T20:28:13.285Z,76.03
2018-11-07T20:30:42.283Z,81.87
2018-11-07T20:33:10.960Z,91.77
2018-11-07T20:35:39.732Z,77.40
2018-11-07T20:38:08.610Z,78.83
2018-11-07T20:40:37.433Z,72.90
2018-11-07T20:43:06.676Z,67.47
2018-11-07T20:45:35.835Z,77.27
2018-11-07T20:48:04.840Z,73.47
2018-11-07T20:50:34.219Z,67.47
2018-11-07T20:53:03.340Z,75.00
2018-11-07T20:55:32.497Z,66.37
2018-11-07T20:58:01.563Z,75.47
2018-11-07T21:00:30.266Z,83.30
2018-11-07T21:02:59.040Z,75.77
2018-11-07T21:05:27.912Z,67.13
2018-11-07T21:07:56.990Z,80.37
2018-11-07T21:10:26.172Z,65.40
2018-11-07T21:12:54.981Z,60.87
2018-11-07T21:15:23.675Z,69.00
2018-11-07T21:17:52.690Z,68.97
2018-11-07T21:20:21.599Z,59.17
2018-11-07T21:22:50.211Z,69.07
2018-11-07T21:25:19.268Z,66.60
2018-11-07T21:27:48.382Z,73.40
2018-11-07T21:30:17.618Z,68.40
2018-11-07T21:32:46.207Z,61.93
2018-11-07T21:35:14.979Z,64.07
2018-11-07T21:37:43.947Z,64.87
2018-11-07T21:40:14.746Z,56.10
2018-11-07T21:42:44.037Z,57.50
2018-11-07T21:45:14.008Z,58.67
2018-11-07T21:47:43.621Z,62.97
2018-11-07T21:50:13.856Z,58.20
2018-11-07T21:52:42.550Z,59.70
2018-11-07T21:55:11.532Z,56.47
2018-11-07T21:57:40.659Z,54.80
2018-11-07T22:00:12.358Z,52.97
2018-11-07T22:02:41.785Z,57.97
2018-11-07T22:05:10.953Z,54.10
2018-11-07T22:07:40.254Z,51.27
2018-11-07T22:10:10.563Z,62.07
2018-11-07T22:12:39.602Z,52.40
2018-11-07T22:15:08.942Z,51.27
2018-11-07T22:17:38.343Z,48.60
2018-11-07T22:20:19.633Z,56.93
2018-11-07T22:22:48.460Z,54.20
2018-11-07T22:25:17.715Z,51.17
2018-11-07T22:27:46.606Z,57.80
2018-11-07T22:30:16.580Z,53.57
2018-11-07T22:32:45.314Z,58.87
2018-11-07T22:35:15.466Z,65.13
2018-11-07T22:37:45.041Z,56.50
2018-11-07T22:40:16.999Z,51.83
2018-11-07T22:42:45.721Z,61.20
2018-11-07T22:45:14.894Z,54.80
2018-11-07T22:47:43.846Z,57.17
2018-11-07T22:50:13.848Z,52.57
2018-11-07T22:52:43.714Z,50.10
2018-11-07T22:55:12.669Z,47.17
2018-11-07T22:57:41.502Z,50.90
2018-11-07T23:00:20.640Z,48.07
2018-11-07T23:02:50.761Z,45.10
2018-11-07T23:05:19.447Z,57.57
2018-11-07T23:07:49.031Z,54.27
2018-11-07T23:10:18.183Z,51.60
2018-11-07T23:12:47.603Z,43.13
2018-11-07T23:15:21.620Z,55.30
2018-11-07T23:17:50.874Z,50.80
2018-11-07T23:20:20.032Z,54.47
2018-11-07T23:22:49.141Z,55.47
2018-11-07T23:25:18.425Z,60.77
2018-11-07T23:27:47.829Z,49.93
2018-11-07T23:30:16.698Z,49.87
2018-11-07T23:32:45.575Z,53.47
2018-11-07T23:35:14.748Z,53.83
2018-11-07T23:37:43.985Z,48.77
2018-11-07T23:40:13.302Z,52.03
2018-11-07T23:42:42.540Z,52.73
2018-11-07T23:45:11.810Z,48.10
2018-11-07T23:47:41.149Z,53.63
2018-11-07T23:50:10.479Z,51.63
2018-11-07T23:52:44.506Z,46.63
2018-11-07T23:55:13.694Z,52.93
2018-11-07T23:57:42.935Z,49.57
